createdAt,value
2018-12-18T00:00:48.323Z,10.10
2018-12-18T00:03:18.873Z,11.20
2018-12-18T00:05:47.769Z,10.20
2018-12-18T00:08:17.246Z,11.03
2018-12-18T00:10:46.610Z,9.67
2018-12-18T00:13:16.043Z,10.03
2018-12-18T00:15:45.305Z,11.57
2018-12-18T00:18:13.496Z,11.60
2018-12-18T00:20:42.211Z,10.87
2018-12-18T00:23:11.752Z,11.40
2018-12-18T00:25:40.951Z,12.23
2018-12-18T00:28:10.770Z,10.50
2018-12-18T00:30:41.468Z,13.30
2018-12-18T00:33:10.663Z,11.73
2018-12-18T00:35:39.453Z,15.10
2018-12-18T00:38:07.535Z,13.13
2018-12-18T00:40:36.798Z,12.60
2018-12-18T00:43:04.993Z,11.33
2018-12-18T00:45:34.056Z,13.40
2018-12-18T00:48:02.826Z,13.60
2018-12-18T00:50:32.546Z,14.43
2018-12-18T00:53:02.635Z,14.03
2018-12-18T00:55:31.390Z,13.63
2018-12-18T00:58:00.005Z,13.97
2018-12-18T01:00:28.538Z,14.90
2018-12-18T01:02:58.454Z,16.47
2018-12-18T01:05:26.643Z,14.40
2018-12-18T01:07:56.254Z,13.67
2018-12-18T01:10:26.195Z,13.00
2018-12-18T01:12:54.169Z,12.53
2018-12-18T01:15:24.239Z,12.80
2018-12-18T01:17:53.363Z,13.40
2018-12-18T01:20:21.379Z,13.07
2018-12-18T01:22:50.053Z,14.13
2018-12-18T01:25:18.092Z,14.23
2018-12-18T01:27:46.429Z,12.87
2018-12-18T01:30:15.139Z,15.17
2018-12-18T01:32:43.198Z,12.40
2018-12-18T01:35:12.032Z,15.07
2018-12-18T01:37:40.202Z,14.90
2018-12-18T01:40:09.688Z,13.67
2018-12-18T01:42:39.566Z,13.40
2018-12-18T01:45:07.836Z,13.03
2018-12-18T01:47:36.432Z,13.50
2018-12-18T01:50:04.910Z,13.30
2018-12-18T01:52:33.680Z,12.00
2018-12-18T01:55:05.865Z,11.83
2018-12-18T01:57:34.208Z,13.00
2018-12-18T02:00:03.611Z,12.63
2018-12-18T02:02:31.718Z,12.40
2018-12-18T02:05:00.320Z,11.77
2018-12-18T02:07:30.202Z,12.93
2018-12-18T02:09:58.339Z,12.03
2018-12-18T02:12:28.958Z,12.00
2018-12-18T02:14:58.327Z,11.93
2018-12-18T02:17:27.316Z,12.40
2018-12-18T02:19:56.756Z,12.13
2018-12-18T02:22:26.066Z,13.40
2018-12-18T02:24:54.863Z,13.43
2018-12-18T02:27:23.525Z,10.90
2018-12-18T02:29:51.694Z,13.50
2018-12-18T02:32:19.772Z,11.50
2018-12-18T02:34:48.161Z,11.50
2018-12-18T02:37:17.620Z,12.87
2018-12-18T02:39:45.621Z,13.03
2018-12-18T02:42:13.943Z,13.23
2018-12-18T02:44:42.781Z,14.00
2018-12-18T02:47:11.363Z,15.17
2018-12-18T02:49:41.579Z,14.33
2018-12-18T02:52:11.245Z,15.90
2018-12-18T02:54:41.257Z,15.80
2018-12-18T02:57:09.831Z,14.37
2018-12-18T02:59:37.918Z,13.47
2018-12-18T03:02:05.700Z,15.40
2018-12-18T03:04:33.857Z,14.90
2018-12-18T03:07:02.692Z,19.97
2018-12-18T03:09:32.492Z,17.13
2018-12-18T03:12:00.478Z,17.80
2018-12-18T03:14:29.595Z,18.03
2018-12-18T03:16:58.303Z,14.50
2018-12-18T03:19:26.803Z,15.00
2018-12-18T03:21:56.988Z,16.37
2018-12-18T03:24:27.041Z,15.27
2018-12-18T03:26:57.558Z,13.27
2018-12-18T03:29:26.511Z,14.63
2018-12-18T03:31:59.501Z,15.90
2018-12-18T03:34:29.136Z,15.83
2018-12-18T03:36:58.015Z,14.13
2018-12-18T03:39:26.585Z,15.90
2018-12-18T03:41:55.991Z,17.43
2018-12-18T03:44:25.609Z,16.67
2018-12-18T03:46:55.633Z,14.27
2018-12-18T03:49:24.364Z,16.43
2018-12-18T03:51:53.385Z,16.27
2018-12-18T03:54:22.783Z,14.03
2018-12-18T03:56:51.644Z,15.30
2018-12-18T03:59:21.508Z,14.70
2018-12-18T04:01:52.142Z,14.33
2018-12-18T04:04:20.147Z,16.13
2018-12-18T04:06:48.244Z,15.00
2018-12-18T04:09:18.318Z,14.70
2018-12-18T04:11:51.806Z,14.63
2018-12-18T04:14:20.604Z,15.10
2018-12-18T04:16:49.242Z,14.60
2018-12-18T04:19:18.519Z,14.27
2018-12-18T04:21:48.168Z,14.20
2018-12-18T04:24:16.594Z,14.73
2018-12-18T04:26:45.275Z,14.57
2018-12-18T04:29:14.070Z,17.43
2018-12-18T04:31:42.927Z,15.40
2018-12-18T04:34:11.596Z,13.93
2018-12-18T04:36:40.902Z,16.07
2018-12-18T04:39:09.141Z,19.13
2018-12-18T04:41:38.534Z,15.93
2018-12-18T04:44:07.169Z,17.20
2018-12-18T04:46:36.735Z,16.43
2018-12-18T04:49:06.851Z,17.67
2018-12-18T04:51:36.092Z,17.30
2018-12-18T04:54:04.151Z,16.77
2018-12-18T04:56:32.928Z,16.50
2018-12-18T04:59:01.064Z,17.30
2018-12-18T05:01:29.788Z,15.80
2018-12-18T05:03:59.066Z,14.53
2018-12-18T05:06:27.029Z,15.67
2018-12-18T05:08:55.567Z,13.70
2018-12-18T05:11:24.941Z,14.80
2018-12-18T05:13:54.397Z,14.43
2018-12-18T05:16:24.431Z,15.37
2018-12-18T05:18:53.256Z,14.40
2018-12-18T05:21:22.559Z,15.53
2018-12-18T05:23:51.440Z,14.20
2018-12-18T05:26:20.912Z,15.80
2018-12-18T05:28:49.607Z,15.60
2018-12-18T05:31:18.291Z,15.83
2018-12-18T05:33:46.279Z,15.47
2018-12-18T05:36:15.129Z,14.40
2018-12-18T05:38:43.808Z,15.03
2018-12-18T05:41:12.591Z,14.00
2018-12-18T05:43:40.621Z,16.30
2018-12-18T05:46:09.890Z,15.67
2018-12-18T05:48:38.080Z,13.83
2018-12-18T05:51:08.936Z,16.37
2018-12-18T05:53:37.108Z,15.50
2018-12-18T05:56:07.091Z,14.40
2018-12-18T05:58:35.064Z,14.70
2018-12-18T06:01:07.739Z,14.60
2018-12-18T06:03:37.069Z,14.57
2018-12-18T06:06:06.351Z,14.23
2018-12-18T06:08:34.485Z,16.30
2018-12-18T06:11:03.603Z,13.30
2018-12-18T06:13:32.871Z,14.23
2018-12-18T06:16:01.753Z,15.53
2018-12-18T06:18:30.673Z,15.47
2018-12-18T06:21:03.244Z,16.33
2018-12-18T06:23:32.028Z,16.50
2018-12-18T06:26:02.125Z,16.20
2018-12-18T06:28:30.760Z,17.17
2018-12-18T06:30:59.091Z,16.50
2018-12-18T06:33:32.471Z,18.60
2018-12-18T06:36:01.370Z,16.83
2018-12-18T06:38:30.652Z,16.30
2018-12-18T06:40:59.389Z,17.23
2018-12-18T06:43:28.392Z,15.60
2018-12-18T06:45:56.567Z,15.13
2018-12-18T06:48:32.589Z,14.40
2018-12-18T06:51:01.498Z,15.03
2018-12-18T06:53:30.649Z,15.80
2018-12-18T06:55:59.912Z,16.80
2018-12-18T06:58:28.709Z,15.77
2018-12-18T07:01:03.975Z,16.10
2018-12-18T07:03:33.256Z,13.97
2018-12-18T07:06:02.701Z,16.03
2018-12-18T07:08:31.213Z,15.37
2018-12-18T07:10:59.950Z,14.13
2018-12-18T07:13:29.054Z,14.33
2018-12-18T07:16:01.315Z,16.63
2018-12-18T07:18:30.109Z,14.50
2018-12-18T07:20:59.439Z,15.93
2018-12-18T07:23:28.273Z,15.67
2018-12-18T07:25:56.447Z,16.77
2018-12-18T07:28:25.323Z,15.53
2018-12-18T07:33:32.624Z,14.23
2018-12-18T07:36:00.912Z,13.83
2018-12-18T07:38:30.196Z,14.27
2018-12-18T07:40:58.426Z,13.83
2018-12-18T07:43:26.492Z,14.27
2018-12-18T07:46:01.322Z,14.90
2018-12-18T07:48:32.482Z,12.60
2018-12-18T07:51:01.248Z,13.50
2018-12-18T07:53:29.426Z,13.40
2018-12-18T07:56:00.301Z,12.33
2018-12-18T07:58:28.331Z,14.80
2018-12-18T08:01:03.267Z,16.13
2018-12-18T08:03:37.273Z,15.70
2018-12-18T08:06:05.935Z,16.67
2018-12-18T08:08:34.234Z,16.57
2018-12-18T08:11:04.503Z,14.83
2018-12-18T08:13:32.599Z,12.87
2018-12-18T08:16:11.100Z,13.70
2018-12-18T08:18:40.452Z,14.13
2018-12-18T08:21:08.627Z,13.37
2018-12-18T08:23:36.735Z,16.63
2018-12-18T08:26:06.267Z,12.57
2018-12-18T08:28:35.119Z,11.30
2018-12-18T08:31:18.622Z,10.70
2018-12-18T08:33:54.741Z,11.87
2018-12-18T08:36:23.913Z,13.40
2018-12-18T08:38:51.990Z,11.00
2018-12-18T08:41:21.300Z,10.47
2018-12-18T08:43:50.134Z,10.10
2018-12-18T08:46:19.225Z,9.70
2018-12-18T08:48:49.741Z,11.80
2018-12-18T08:51:19.572Z,11.43
2018-12-18T08:53:47.791Z,11.13
2018-12-18T08:56:16.378Z,10.43
2018-12-18T08:58:45.120Z,10.30
2018-12-18T09:01:15.303Z,11.13
2018-12-18T09:03:44.399Z,10.60
2018-12-18T09:06:15.881Z,11.37
2018-12-18T09:08:44.582Z,10.60
2018-12-18T09:11:14.074Z,11.37
2018-12-18T09:13:43.477Z,10.27
2018-12-18T09:16:18.309Z,11.63
2018-12-18T09:18:48.754Z,13.13
2018-12-18T09:21:18.392Z,11.13
2018-12-18T09:23:46.479Z,11.73
2018-12-18T09:26:17.148Z,13.40
2018-12-18T09:28:45.935Z,12.10
2018-12-18T09:31:22.880Z,12.20
2018-12-18T09:33:52.579Z,14.17
2018-12-18T09:36:21.883Z,12.60
2018-12-18T09:38:58.553Z,11.90
2018-12-18T09:41:31.286Z,11.77
2018-12-18T09:44:06.110Z,11.57
2018-12-18T09:46:41.547Z,12.33
2018-12-18T09:49:09.729Z,14.97
2018-12-18T09:51:38.348Z,14.00
2018-12-18T09:54:08.246Z,15.40
2018-12-18T09:56:45.871Z,19.27
2018-12-18T09:59:18.393Z,16.30
2018-12-18T10:01:48.430Z,13.67
2018-12-18T10:04:17.927Z,14.77
2018-12-18T10:06:46.040Z,15.20
2018-12-18T10:09:14.207Z,13.40
2018-12-18T10:11:43.105Z,13.13
2018-12-18T10:14:17.101Z,12.37
2018-12-18T10:16:53.942Z,11.43
2018-12-18T10:19:24.501Z,10.73
2018-12-18T10:21:57.363Z,11.33
2018-12-18T10:24:26.584Z,11.80
2018-12-18T10:26:55.240Z,10.90
2018-12-18T10:29:24.653Z,11.53
2018-12-18T10:31:55.688Z,10.87
2018-12-18T10:34:26.622Z,11.33
2018-12-18T10:36:58.585Z,12.50
2018-12-18T10:39:28.742Z,11.40
2018-12-18T10:42:01.150Z,11.60
2018-12-18T10:44:31.609Z,10.70
2018-12-18T10:47:08.596Z,9.70
2018-12-18T10:49:45.226Z,10.67
2018-12-18T10:52:14.731Z,10.63
2018-12-18T10:54:43.755Z,12.80
2018-12-18T10:57:14.833Z,11.63
2018-12-18T10:59:47.478Z,11.57
2018-12-18T11:02:15.939Z,11.93
2018-12-18T11:04:45.359Z,12.97
2018-12-18T11:07:15.921Z,12.83
2018-12-18T11:09:44.577Z,12.97
2018-12-18T11:12:16.509Z,12.33
2018-12-18T11:14:47.629Z,11.67
2018-12-18T11:17:21.293Z,11.50
2018-12-18T11:19:52.290Z,11.73
2018-12-18T11:22:24.668Z,10.93
2018-12-18T11:24:55.138Z,11.40
2018-12-18T11:27:26.573Z,12.50
2018-12-18T11:29:57.548Z,12.10
2018-12-18T11:32:33.126Z,12.37
2018-12-18T11:35:04.505Z,11.43
2018-12-18T11:37:34.876Z,12.53
2018-12-18T11:40:03.481Z,11.27
2018-12-18T11:42:32.643Z,11.60
2018-12-18T11:45:06.939Z,12.23
2018-12-18T11:47:36.785Z,10.80
2018-12-18T11:50:05.798Z,11.10
2018-12-18T11:52:39.406Z,12.30
2018-12-18T11:55:09.955Z,11.30
2018-12-18T11:57:38.934Z,11.83
2018-12-18T12:00:15.239Z,10.10
2018-12-18T12:02:48.724Z,10.90
2018-12-18T12:05:19.367Z,11.57
2018-12-18T12:07:50.443Z,12.10
2018-12-18T12:13:04.361Z,11.43
2018-12-18T12:15:35.302Z,10.50
2018-12-18T12:18:07.417Z,13.17
2018-12-18T12:20:39.443Z,10.30
2018-12-18T12:23:07.818Z,13.40
2018-12-18T12:25:38.348Z,11.10
2018-12-18T12:28:12.741Z,11.10
2018-12-18T12:30:41.750Z,10.83
2018-12-18T12:33:16.896Z,10.87
2018-12-18T12:35:55.407Z,12.10
2018-12-18T12:38:24.955Z,11.83
2018-12-18T12:41:02.689Z,10.67
2018-12-18T12:43:33.544Z,10.80
2018-12-18T12:46:03.799Z,11.80
2018-12-18T12:48:54.825Z,11.50
2018-12-18T12:51:24.317Z,11.87
2018-12-18T12:53:54.080Z,11.90
2018-12-18T12:56:23.074Z,10.03
2018-12-18T12:58:53.485Z,11.87
2018-12-18T13:01:22.799Z,11.70
2018-12-18T13:03:53.653Z,12.37
2018-12-18T13:06:22.421Z,11.07
2018-12-18T13:08:51.563Z,11.40
2018-12-18T13:11:20.907Z,11.23
2018-12-18T13:13:54.170Z,11.77
2018-12-18T13:16:23.847Z,10.83
2018-12-18T13:18:53.627Z,11.37
2018-12-18T13:21:22.767Z,11.77
2018-12-18T13:23:51.943Z,10.23
2018-12-18T13:26:20.764Z,11.37
2018-12-18T13:28:53.988Z,11.53
2018-12-18T13:31:24.597Z,11.67
2018-12-18T13:33:56.413Z,11.90
2018-12-18T13:36:28.453Z,11.63
2018-12-18T13:38:59.111Z,13.83
2018-12-18T13:41:27.143Z,13.73
2018-12-18T13:43:57.113Z,18.77
2018-12-18T13:46:26.518Z,14.87
2018-12-18T13:48:57.113Z,10.63
2018-12-18T13:51:26.506Z,12.50
2018-12-18T13:53:56.550Z,10.50
2018-12-18T13:56:26.167Z,10.00
2018-12-18T13:58:55.675Z,11.03
2018-12-18T14:01:25.931Z,14.73
2018-12-18T14:03:55.527Z,14.47
2018-12-18T14:06:24.478Z,177.23
2018-12-18T14:08:53.219Z,54.17
2018-12-18T14:11:21.726Z,44.10
2018-12-18T14:13:52.183Z,20.27
2018-12-18T14:16:22.876Z,20.37
2018-12-18T14:18:52.386Z,28.50
2018-12-18T14:21:22.922Z,40.57
2018-12-18T14:23:52.665Z,47.27
2018-12-18T14:26:21.085Z,25.10
2018-12-18T14:28:51.496Z,18.30
2018-12-18T14:31:20.986Z,14.30
2018-12-18T14:33:50.420Z,11.97
2018-12-18T14:36:19.764Z,10.83
2018-12-18T14:38:48.559Z,9.50
2018-12-18T14:41:16.656Z,9.90
2018-12-18T14:43:45.369Z,8.87
2018-12-18T14:46:13.483Z,10.33
2018-12-18T14:48:42.463Z,11.10
2018-12-18T14:51:12.629Z,12.40
2018-12-18T14:53:42.016Z,12.20
2018-12-18T14:56:14.482Z,11.00
2018-12-18T14:58:44.162Z,13.30
2018-12-18T15:01:13.076Z,11.13
2018-12-18T15:03:43.892Z,11.13
2018-12-18T15:06:13.632Z,13.73
2018-12-18T15:08:42.663Z,13.57
2018-12-18T15:11:11.459Z,12.90
2018-12-18T15:13:42.854Z,15.73
2018-12-18T15:16:12.096Z,15.77
2018-12-18T15:18:45.018Z,11.40
2018-12-18T15:21:15.779Z,13.57
2018-12-18T15:23:46.002Z,13.57
2018-12-18T15:26:18.336Z,13.23
2018-12-18T15:28:52.204Z,12.10
2018-12-18T15:31:22.068Z,11.07
2018-12-18T15:33:54.287Z,13.57
2018-12-18T15:36:24.404Z,14.10
2018-12-18T15:38:54.264Z,13.70
2018-12-18T15:41:24.927Z,13.13
2018-12-18T15:44:04.392Z,11.93
2018-12-18T15:46:34.051Z,12.80
2018-12-18T15:49:03.875Z,17.33
2018-12-18T15:51:33.221Z,14.83
2018-12-18T15:54:03.887Z,20.60
2018-12-18T15:56:34.463Z,14.33
2018-12-18T15:59:04.676Z,16.27
2018-12-18T16:01:32.758Z,15.53
2018-12-18T16:04:02.809Z,16.10
2018-12-18T16:06:31.953Z,22.30
2018-12-18T16:09:04.263Z,25.13
2018-12-18T16:11:33.729Z,27.77
2018-12-18T16:14:05.518Z,42.50
2018-12-18T16:16:35.122Z,47.00
2018-12-18T16:19:07.749Z,34.70
2018-12-18T16:21:38.816Z,19.57
2018-12-18T16:24:08.421Z,15.90
2018-12-18T16:26:38.288Z,17.17
2018-12-18T16:29:10.006Z,16.20
2018-12-18T16:31:38.688Z,14.83
2018-12-18T16:34:08.287Z,15.17
2018-12-18T16:36:37.559Z,17.52
2018-12-18T16:39:08.551Z,16.33
2018-12-18T16:41:38.240Z,16.60
2018-12-18T16:44:07.781Z,23.20
2018-12-18T16:46:36.121Z,22.55
2018-12-18T16:49:04.781Z,17.73
2018-12-18T16:51:34.205Z,18.50
2018-12-18T16:54:07.095Z,15.98
2018-12-18T16:56:35.789Z,17.12
2018-12-18T16:59:09.788Z,24.30
2018-12-18T17:01:40.132Z,21.37
2018-12-18T17:04:13.482Z,22.07
2018-12-18T17:06:41.752Z,27.75
2018-12-18T17:09:16.720Z,27.63
2018-12-18T17:11:53.313Z,37.95
2018-12-18T17:14:21.594Z,52.95
2018-12-18T17:16:51.369Z,34.92
2018-12-18T17:19:26.422Z,35.58
2018-12-18T17:21:55.513Z,37.80
2018-12-18T17:24:25.815Z,42.25
2018-12-18T17:29:34.149Z,35.85
2018-12-18T17:32:07.556Z,50.40
2018-12-18T17:34:38.447Z,43.05
2018-12-18T17:37:07.162Z,29.57
2018-12-18T17:39:45.117Z,33.98
2018-12-18T17:42:16.939Z,37.65
2018-12-18T17:47:34.131Z,37.83
2018-12-18T17:50:08.040Z,27.65
2018-12-18T17:52:40.115Z,34.08
2018-12-18T17:55:15.285Z,28.40
2018-12-18T17:57:50.329Z,30.45
2018-12-18T18:00:35.900Z,31.60
2018-12-18T18:03:11.458Z,28.83
2018-12-18T18:05:56.875Z,29.75
2018-12-18T18:08:30.653Z,28.92
2018-12-18T18:13:46.852Z,24.52
2018-12-18T18:16:22.802Z,28.05
2018-12-18T18:18:53.810Z,33.55
2018-12-18T18:21:24.708Z,31.87
2018-12-18T18:23:54.358Z,39.27
2018-12-18T18:26:23.486Z,93.22
2018-12-18T18:28:57.984Z,55.80
2018-12-18T18:31:27.756Z,39.00
2018-12-18T18:34:02.451Z,33.33
2018-12-18T18:36:31.903Z,37.00
2018-12-18T18:39:08.280Z,50.00
2018-12-18T18:41:51.335Z,36.15
2018-12-18T18:44:24.159Z,49.48
2018-12-18T18:46:56.885Z,36.38
2018-12-18T18:49:28.716Z,29.35
2018-12-18T18:51:57.183Z,31.65
2018-12-18T18:54:37.294Z,29.00
2018-12-18T18:57:14.441Z,36.05
2018-12-18T18:59:43.569Z,34.60
2018-12-18T19:04:57.481Z,33.92
2018-12-18T19:07:29.229Z,35.13
2018-12-18T19:10:05.353Z,34.92
2018-12-18T19:12:45.853Z,33.67
2018-12-18T19:15:14.666Z,35.83
2018-12-18T19:17:55.736Z,35.17
2018-12-18T19:20:38.433Z,31.80
2018-12-18T19:23:13.802Z,31.82
2018-12-18T19:25:50.619Z,37.05
2018-12-18T19:31:02.863Z,35.68
2018-12-18T19:33:38.380Z,42.13
2018-12-18T19:36:08.446Z,33.98
2018-12-18T19:38:37.756Z,29.37
2018-12-18T19:41:07.409Z,31.55
2018-12-18T19:43:43.978Z,30.52
2018-12-18T19:49:06.434Z,29.95
2018-12-18T19:51:35.277Z,36.25
2018-12-18T19:54:08.288Z,36.98
2018-12-18T19:56:40.851Z,44.20
2018-12-18T19:59:16.436Z,33.30
2018-12-18T20:01:50.298Z,35.70
2018-12-18T20:04:27.854Z,37.67
2018-12-18T20:07:12.295Z,39.18
2018-12-18T20:09:44.589Z,38.67
2018-12-18T20:12:21.336Z,31.68
2018-12-18T20:14:51.760Z,33.42
2018-12-18T20:20:05.899Z,34.07
2018-12-18T20:22:34.231Z,34.05
2018-12-18T20:25:06.999Z,33.53
2018-12-18T20:27:40.907Z,34.20
2018-12-18T20:30:21.557Z,31.50
2018-12-18T20:32:51.113Z,31.90
2018-12-18T20:35:26.323Z,33.10
2018-12-18T20:40:38.830Z,42.10
2018-12-18T20:48:37.600Z,40.70
2018-12-18T20:51:06.552Z,49.87
2018-12-18T20:53:46.287Z,49.83
2018-12-18T20:56:23.174Z,51.67
2018-12-18T20:58:58.761Z,52.90
2018-12-18T21:01:32.423Z,48.10
2018-12-18T21:04:06.114Z,50.57
2018-12-18T21:06:35.773Z,44.00
2018-12-18T21:09:10.171Z,52.20
2018-12-18T21:11:57.670Z,52.40
2018-12-18T21:14:27.837Z,52.20
2018-12-18T21:16:56.969Z,53.27
2018-12-18T21:19:27.344Z,51.60
2018-12-18T21:22:01.224Z,50.40
2018-12-18T21:24:32.648Z,52.60
2018-12-18T21:27:10.294Z,53.63
2018-12-18T21:29:41.528Z,52.40
2018-12-18T21:32:14.912Z,47.57
2018-12-18T21:34:46.779Z,54.63
2018-12-18T21:37:18.026Z,49.00
2018-12-18T21:39:49.877Z,50.20
2018-12-18T21:42:18.965Z,49.73
2018-12-18T21:44:58.827Z,51.03
2018-12-18T21:47:29.146Z,48.43
2018-12-18T21:49:58.960Z,51.60
2018-12-18T21:52:28.387Z,51.03
2018-12-18T21:54:57.219Z,49.80
2018-12-18T21:57:27.292Z,49.50
2018-12-18T21:59:59.055Z,52.07
2018-12-18T22:02:35.502Z,48.97
2018-12-18T22:05:05.175Z,48.13
2018-12-18T22:07:34.940Z,49.27
2018-12-18T22:10:06.203Z,44.57
2018-12-18T22:12:35.666Z,48.13
2018-12-18T22:15:04.756Z,49.50
2018-12-18T22:17:34.379Z,49.53
2018-12-18T22:20:03.169Z,50.10
2018-12-18T22:22:33.353Z,48.80
2018-12-18T22:25:04.297Z,49.47
2018-12-18T22:27:34.823Z,49.80
2018-12-18T22:30:04.665Z,44.77
2018-12-18T22:32:33.863Z,45.03
2018-12-18T22:35:05.101Z,47.27
2018-12-18T22:37:33.715Z,43.90
2018-12-18T22:40:04.114Z,45.90
2018-12-18T22:42:33.236Z,44.23
2018-12-18T22:45:02.402Z,44.87
2018-12-18T22:47:30.523Z,48.30
2018-12-18T22:49:59.872Z,44.07
2018-12-18T22:52:28.492Z,48.67
2018-12-18T22:54:57.562Z,47.07
2018-12-18T22:57:26.322Z,46.07
2018-12-18T22:59:55.723Z,47.43
2018-12-18T23:02:25.632Z,46.30
2018-12-18T23:04:54.408Z,41.33
2018-12-18T23:07:22.550Z,38.80
2018-12-18T23:09:51.159Z,44.07
2018-12-18T23:12:20.693Z,38.77
2018-12-18T23:14:49.027Z,39.77
2018-12-18T23:17:19.401Z,38.77
2018-12-18T23:19:49.033Z,38.00
2018-12-18T23:22:19.040Z,34.53
2018-12-18T23:24:48.879Z,37.90
2018-12-18T23:27:17.468Z,38.80
2018-12-18T23:29:46.942Z,38.60
2018-12-18T23:32:15.692Z,36.27
2018-12-18T23:34:43.762Z,40.20
2018-12-18T23:37:13.276Z,37.83
2018-12-18T23:39:41.234Z,40.70
2018-12-18T23:42:09.501Z,37.50
2018-12-18T23:44:37.526Z,40.23
2018-12-18T23:47:05.685Z,42.60
2018-12-18T23:49:34.242Z,38.87
2018-12-18T23:52:04.227Z,38.27
2018-12-18T23:54:33.470Z,36.93
2018-12-18T23:57:01.588Z,35.83
2018-12-18T23:59:30.944Z,38.27
